sensor_id;sensor_type;location;lat;lon;timestamp;P1;durP1;ratioP1;P2;durP2;ratioP2
71395;SDS011;59888;55.814;37.132;2022-11-21T00:00:29;18.60;;;8.50;;
71395;SDS011;59888;55.814;37.132;2022-11-21T00:02:57;20.33;;;9.52;;
71395;SDS011;59888;55.814;37.132;2022-11-21T00:05:25;20.80;;;8.57;;
71395;SDS011;59888;55.814;37.132;2022-11-21T00:07:55;16.25;;;8.38;;
71395;SDS011;59888;55.814;37.132;2022-11-21T00:10:22;20.75;;;9.07;;
71395;SDS011;59888;55.814;37.132;2022-11-21T00:12:53;19.48;;;9.48;;
71395;SDS011;59888;55.814;37.132;2022-11-21T00:15:20;18.90;;;9.30;;
71395;SDS011;59888;55.814;37.132;2022-11-21T00:17:47;19.08;;;9.05;;
71395;SDS011;59888;55.814;37.132;2022-11-21T00:20:13;17.50;;;8.02;;
71395;SDS011;59888;55.814;37.132;2022-11-21T00:22:39;21.00;;;9.15;;
71395;SDS011;59888;55.814;37.132;2022-11-21T00:25:10;18.50;;;9.02;;
71395;SDS011;59888;55.814;37.132;2022-11-21T00:27:37;18.42;;;8.25;;
71395;SDS011;59888;55.814;37.132;2022-11-21T00:30:03;17.55;;;8.18;;
71395;SDS011;59888;55.814;37.132;2022-11-21T00:32:30;17.05;;;8.93;;
71395;SDS011;59888;55.814;37.132;2022-11-21T00:35:06;27.40;;;10.25;;
71395;SDS011;59888;55.814;37.132;2022-11-21T00:37:32;23.48;;;10.00;;
71395;SDS011;59888;55.814;37.132;2022-11-21T00:39:58;22.08;;;9.60;;
71395;SDS011;59888;55.814;37.132;2022-11-21T00:42:24;24.40;;;9.35;;
71395;SDS011;59888;55.814;37.132;2022-11-21T00:44:50;20.70;;;9.40;;
71395;SDS011;59888;55.814;37.132;2022-11-21T00:47:16;23.58;;;9.27;;
71395;SDS011;59888;55.814;37.132;2022-11-21T00:49:42;24.67;;;9.32;;
71395;SDS011;59888;55.814;37.132;2022-11-21T00:52:07;20.92;;;9.45;;
71395;SDS011;59888;55.814;37.132;2022-11-21T00:54:33;22.40;;;9.07;;
71395;SDS011;59888;55.814;37.132;2022-11-21T00:56:59;22.20;;;9.02;;
71395;SDS011;59888;55.814;37.132;2022-11-21T00:59:25;21.02;;;9.25;;
71395;SDS011;59888;55.814;37.132;2022-11-21T01:01:51;21.95;;;9.57;;
71395;SDS011;59888;55.814;37.132;2022-11-21T01:04:16;20.80;;;9.50;;
71395;SDS011;59888;55.814;37.132;2022-11-21T01:06:42;20.20;;;8.68;;
71395;SDS011;59888;55.814;37.132;2022-11-21T01:09:08;19.00;;;8.90;;
71395;SDS011;59888;55.814;37.132;2022-11-21T01:11:34;18.08;;;8.40;;
71395;SDS011;59888;55.814;37.132;2022-11-21T01:14:00;23.30;;;9.52;;
71395;SDS011;59888;55.814;37.132;2022-11-21T01:16:26;17.38;;;7.97;;
71395;SDS011;59888;55.814;37.132;2022-11-21T01:18:53;19.17;;;9.10;;
71395;SDS011;59888;55.814;37.132;2022-11-21T01:21:23;18.88;;;8.32;;
71395;SDS011;59888;55.814;37.132;2022-11-21T01:23:51;22.83;;;8.70;;
71395;SDS011;59888;55.814;37.132;2022-11-21T01:26:18;20.23;;;8.82;;
71395;SDS011;59888;55.814;37.132;2022-11-21T01:28:46;19.38;;;9.57;;
71395;SDS011;59888;55.814;37.132;2022-11-21T01:31:18;22.77;;;9.00;;
71395;SDS011;59888;55.814;37.132;2022-11-21T01:36:13;19.20;;;9.50;;
71395;SDS011;59888;55.814;37.132;2022-11-21T01:38:41;24.13;;;10.32;;
71395;SDS011;59888;55.814;37.132;2022-11-21T01:41:12;21.90;;;10.27;;
71395;SDS011;59888;55.814;37.132;2022-11-21T01:43:39;23.15;;;10.27;;
71395;SDS011;59888;55.814;37.132;2022-11-21T01:48:35;20.90;;;9.57;;
71395;SDS011;59888;55.814;37.132;2022-11-21T01:51:12;22.42;;;9.38;;
71395;SDS011;59888;55.814;37.132;2022-11-21T01:53:43;22.85;;;10.05;;
71395;SDS011;59888;55.814;37.132;2022-11-21T01:56:11;22.50;;;9.52;;
71395;SDS011;59888;55.814;37.132;2022-11-21T01:58:38;22.02;;;9.77;;
71395;SDS011;59888;55.814;37.132;2022-11-21T02:01:05;22.92;;;9.73;;
71395;SDS011;59888;55.814;37.132;2022-11-21T02:03:32;26.38;;;10.00;;
71395;SDS011;59888;55.814;37.132;2022-11-21T02:06:06;18.70;;;9.55;;
71395;SDS011;59888;55.814;37.132;2022-11-21T02:08:34;22.30;;;9.95;;
71395;SDS011;59888;55.814;37.132;2022-11-21T02:13:36;25.77;;;10.15;;
71395;SDS011;59888;55.814;37.132;2022-11-21T02:16:02;23.90;;;9.88;;
71395;SDS011;59888;55.814;37.132;2022-11-21T02:18:28;21.17;;;9.50;;
71395;SDS011;59888;55.814;37.132;2022-11-21T02:20:57;23.50;;;9.52;;
71395;SDS011;59888;55.814;37.132;2022-11-21T02:26:18;20.80;;;9.02;;
71395;SDS011;59888;55.814;37.132;2022-11-21T02:28:44;21.50;;;9.73;;
71395;SDS011;59888;55.814;37.132;2022-11-21T02:31:10;20.17;;;9.82;;
71395;SDS011;59888;55.814;37.132;2022-11-21T02:33:36;22.58;;;8.98;;
71395;SDS011;59888;55.814;37.132;2022-11-21T02:36:02;22.25;;;9.60;;
71395;SDS011;59888;55.814;37.132;2022-11-21T02:38:29;20.80;;;9.52;;
71395;SDS011;59888;55.814;37.132;2022-11-21T02:44:08;20.42;;;8.30;;
71395;SDS011;59888;55.814;37.132;2022-11-21T02:46:49;20.33;;;9.15;;
71395;SDS011;59888;55.814;37.132;2022-11-21T02:49:18;19.87;;;8.80;;
71395;SDS011;59888;55.814;37.132;2022-11-21T02:51:48;18.58;;;8.50;;
71395;SDS011;59888;55.814;37.132;2022-11-21T02:54:14;20.17;;;9.13;;
71395;SDS011;59888;55.814;37.132;2022-11-21T02:56:40;18.88;;;8.43;;
71395;SDS011;59888;55.814;37.132;2022-11-21T02:59:05;20.48;;;8.85;;
71395;SDS011;59888;55.814;37.132;2022-11-21T03:01:31;21.13;;;9.40;;
71395;SDS011;59888;55.814;37.132;2022-11-21T03:03:57;19.58;;;9.75;;
71395;SDS011;59888;55.814;37.132;2022-11-21T03:06:23;22.38;;;9.77;;
71395;SDS011;59888;55.814;37.132;2022-11-21T03:08:48;19.85;;;8.93;;
71395;SDS011;59888;55.814;37.132;2022-11-21T03:11:14;21.90;;;8.73;;
71395;SDS011;59888;55.814;37.132;2022-11-21T03:13:40;21.65;;;8.90;;
71395;SDS011;59888;55.814;37.132;2022-11-21T03:16:06;21.75;;;8.90;;
71395;SDS011;59888;55.814;37.132;2022-11-21T03:18:31;23.23;;;9.23;;
71395;SDS011;59888;55.814;37.132;2022-11-21T03:20:57;19.80;;;9.35;;
71395;SDS011;59888;55.814;37.132;2022-11-21T03:23:23;20.45;;;8.90;;
71395;SDS011;59888;55.814;37.132;2022-11-21T03:25:54;20.77;;;8.77;;
71395;SDS011;59888;55.814;37.132;2022-11-21T03:28:19;19.48;;;9.05;;
71395;SDS011;59888;55.814;37.132;2022-11-21T03:30:45;23.70;;;9.65;;
71395;SDS011;59888;55.814;37.132;2022-11-21T03:33:11;24.08;;;9.25;;
71395;SDS011;59888;55.814;37.132;2022-11-21T03:35:37;25.65;;;9.65;;
71395;SDS011;59888;55.814;37.132;2022-11-21T03:38:03;24.48;;;9.63;;
71395;SDS011;59888;55.814;37.132;2022-11-21T03:40:29;21.05;;;9.43;;
71395;SDS011;59888;55.814;37.132;2022-11-21T03:42:54;24.10;;;9.65;;
71395;SDS011;59888;55.814;37.132;2022-11-21T03:45:20;17.90;;;8.50;;
71395;SDS011;59888;55.814;37.132;2022-11-21T03:47:46;20.42;;;9.20;;
71395;SDS011;59888;55.814;37.132;2022-11-21T03:50:11;21.38;;;9.90;;
71395;SDS011;59888;55.814;37.132;2022-11-21T03:52:39;24.60;;;9.50;;
71395;SDS011;59888;55.814;37.132;2022-11-21T03:55:05;22.48;;;8.82;;
71395;SDS011;59888;55.814;37.132;2022-11-21T03:57:31;21.58;;;8.75;;
71395;SDS011;59888;55.814;37.132;2022-11-21T03:59:57;22.40;;;9.27;;
71395;SDS011;59888;55.814;37.132;2022-11-21T04:02:23;18.75;;;8.38;;
71395;SDS011;59888;55.814;37.132;2022-11-21T04:04:48;23.05;;;9.13;;
71395;SDS011;59888;55.814;37.132;2022-11-21T04:07:14;18.55;;;9.00;;
71395;SDS011;59888;55.814;37.132;2022-11-21T04:09:40;21.23;;;8.32;;
71395;SDS011;59888;55.814;37.132;2022-11-21T04:12:06;21.63;;;8.40;;
71395;SDS011;59888;55.814;37.132;2022-11-21T04:14:32;20.73;;;8.43;;
71395;SDS011;59888;55.814;37.132;2022-11-21T04:16:58;19.63;;;8.10;;
71395;SDS011;59888;55.814;37.132;2022-11-21T04:19:24;19.42;;;8.48;;
71395;SDS011;59888;55.814;37.132;2022-11-21T04:21:49;21.40;;;8.85;;
71395;SDS011;59888;55.814;37.132;2022-11-21T04:24:15;20.83;;;8.77;;
71395;SDS011;59888;55.814;37.132;2022-11-21T04:26:41;23.65;;;9.45;;
71395;SDS011;59888;55.814;37.132;2022-11-21T04:29:07;21.05;;;9.23;;
71395;SDS011;59888;55.814;37.132;2022-11-21T04:31:32;18.95;;;8.73;;
71395;SDS011;59888;55.814;37.132;2022-11-21T04:33:58;23.23;;;9.27;;
71395;SDS011;59888;55.814;37.132;2022-11-21T04:36:24;19.92;;;9.00;;
71395;SDS011;59888;55.814;37.132;2022-11-21T04:38:50;19.23;;;8.18;;
71395;SDS011;59888;55.814;37.132;2022-11-21T04:41:15;19.17;;;8.90;;
71395;SDS011;59888;55.814;37.132;2022-11-21T04:43:41;22.52;;;9.23;;
71395;SDS011;59888;55.814;37.132;2022-11-21T04:46:07;21.80;;;9.00;;
71395;SDS011;59888;55.814;37.132;2022-11-21T04:48:33;18.02;;;8.88;;
71395;SDS011;59888;55.814;37.132;2022-11-21T04:50:58;21.70;;;8.25;;
71395;SDS011;59888;55.814;37.132;2022-11-21T04:53:24;19.60;;;8.45;;
71395;SDS011;59888;55.814;37.132;2022-11-21T04:55:50;21.20;;;9.48;;
71395;SDS011;59888;55.814;37.132;2022-11-21T04:58:16;20.92;;;8.93;;
71395;SDS011;59888;55.814;37.132;2022-11-21T05:00:41;20.20;;;8.73;;
71395;SDS011;59888;55.814;37.132;2022-11-21T05:03:07;21.35;;;8.88;;
71395;SDS011;59888;55.814;37.132;2022-11-21T05:05:33;19.58;;;9.00;;
71395;SDS011;59888;55.814;37.132;2022-11-21T05:07:59;27.02;;;8.95;;
71395;SDS011;59888;55.814;37.132;2022-11-21T05:10:25;23.40;;;9.00;;
71395;SDS011;59888;55.814;37.132;2022-11-21T05:12:59;23.38;;;9.05;;
71395;SDS011;59888;55.814;37.132;2022-11-21T05:15:44;21.17;;;9.27;;
71395;SDS011;59888;55.814;37.132;2022-11-21T05:18:10;21.80;;;9.65;;
71395;SDS011;59888;55.814;37.132;2022-11-21T05:20:36;20.98;;;9.30;;
71395;SDS011;59888;55.814;37.132;2022-11-21T05:23:02;21.15;;;9.82;;
71395;SDS011;59888;55.814;37.132;2022-11-21T05:25:28;20.63;;;8.75;;
71395;SDS011;59888;55.814;37.132;2022-11-21T05:27:56;22.00;;;9.10;;
71395;SDS011;59888;55.814;37.132;2022-11-21T05:30:22;22.08;;;9.80;;
71395;SDS011;59888;55.814;37.132;2022-11-21T05:32:48;20.80;;;8.85;;
71395;SDS011;59888;55.814;37.132;2022-11-21T05:35:14;23.90;;;9.48;;
71395;SDS011;59888;55.814;37.132;2022-11-21T05:37:40;21.38;;;9.60;;
71395;SDS011;59888;55.814;37.132;2022-11-21T05:40:06;25.15;;;10.23;;
71395;SDS011;59888;55.814;37.132;2022-11-21T05:42:32;22.48;;;9.40;;
71395;SDS011;59888;55.814;37.132;2022-11-21T05:45:16;23.50;;;9.73;;
71395;SDS011;59888;55.814;37.132;2022-11-21T05:47:42;21.00;;;9.68;;
71395;SDS011;59888;55.814;37.132;2022-11-21T05:50:08;21.30;;;9.43;;
71395;SDS011;59888;55.814;37.132;2022-11-21T05:52:36;19.98;;;9.85;;
71395;SDS011;59888;55.814;37.132;2022-11-21T05:55:02;21.30;;;9.52;;
71395;SDS011;59888;55.814;37.132;2022-11-21T05:57:28;18.88;;;9.32;;
71395;SDS011;59888;55.814;37.132;2022-11-21T05:59:55;20.02;;;9.55;;
71395;SDS011;59888;55.814;37.132;2022-11-21T06:02:21;20.10;;;9.75;;
71395;SDS011;59888;55.814;37.132;2022-11-21T06:05:05;19.38;;;9.70;;
71395;SDS011;59888;55.814;37.132;2022-11-21T06:07:31;20.75;;;9.00;;
71395;SDS011;59888;55.814;37.132;2022-11-21T06:09:57;23.85;;;10.40;;
71395;SDS011;59888;55.814;37.132;2022-11-21T06:12:23;22.02;;;9.32;;
71395;SDS011;59888;55.814;37.132;2022-11-21T06:14:49;22.70;;;9.88;;
71395;SDS011;59888;55.814;37.132;2022-11-21T06:17:14;23.02;;;10.23;;
71395;SDS011;59888;55.814;37.132;2022-11-21T06:19:40;22.35;;;9.65;;
71395;SDS011;59888;55.814;37.132;2022-11-21T06:22:06;22.58;;;9.82;;
71395;SDS011;59888;55.814;37.132;2022-11-21T06:24:32;24.45;;;10.38;;
71395;SDS011;59888;55.814;37.132;2022-11-21T06:26:57;21.10;;;9.57;;
71395;SDS011;59888;55.814;37.132;2022-11-21T06:29:23;20.17;;;9.30;;
71395;SDS011;59888;55.814;37.132;2022-11-21T06:31:49;21.90;;;9.65;;
71395;SDS011;59888;55.814;37.132;2022-11-21T06:34:15;19.30;;;9.73;;
71395;SDS011;59888;55.814;37.132;2022-11-21T06:36:41;19.88;;;9.82;;
71395;SDS011;59888;55.814;37.132;2022-11-21T06:39:09;23.55;;;10.77;;
71395;SDS011;59888;55.814;37.132;2022-11-21T06:41:34;22.38;;;9.73;;
71395;SDS011;59888;55.814;37.132;2022-11-21T06:44:00;22.15;;;9.77;;
71395;SDS011;59888;55.814;37.132;2022-11-21T06:46:26;23.02;;;9.95;;
71395;SDS011;59888;55.814;37.132;2022-11-21T06:48:52;21.63;;;10.05;;
71395;SDS011;59888;55.814;37.132;2022-11-21T06:51:19;22.35;;;8.98;;
71395;SDS011;59888;55.814;37.132;2022-11-21T06:53:47;22.10;;;10.40;;
71395;SDS011;59888;55.814;37.132;2022-11-21T06:56:20;20.50;;;9.88;;
71395;SDS011;59888;55.814;37.132;2022-11-21T06:58:50;19.27;;;9.82;;
71395;SDS011;59888;55.814;37.132;2022-11-21T07:01:15;24.83;;;10.52;;
71395;SDS011;59888;55.814;37.132;2022-11-21T07:03:41;19.83;;;9.63;;
71395;SDS011;59888;55.814;37.132;2022-11-21T07:06:07;22.15;;;10.65;;
71395;SDS011;59888;55.814;37.132;2022-11-21T07:08:33;24.17;;;10.02;;
71395;SDS011;59888;55.814;37.132;2022-11-21T07:11:05;23.45;;;10.32;;
71395;SDS011;59888;55.814;37.132;2022-11-21T07:13:33;18.45;;;9.32;;
71395;SDS011;59888;55.814;37.132;2022-11-21T07:16:03;18.88;;;9.20;;
71395;SDS011;59888;55.814;37.132;2022-11-21T07:18:31;23.52;;;10.13;;
71395;SDS011;59888;55.814;37.132;2022-11-21T07:21:01;19.98;;;9.43;;
71395;SDS011;59888;55.814;37.132;2022-11-21T07:23:29;22.50;;;10.18;;
71395;SDS011;59888;55.814;37.132;2022-11-21T07:26:09;20.58;;;9.55;;
71395;SDS011;59888;55.814;37.132;2022-11-21T07:28:35;20.63;;;8.95;;
71395;SDS011;59888;55.814;37.132;2022-11-21T07:31:01;28.95;;;10.73;;
71395;SDS011;59888;55.814;37.132;2022-11-21T07:33:28;17.35;;;8.73;;
71395;SDS011;59888;55.814;37.132;2022-11-21T07:35:54;22.60;;;10.88;;
71395;SDS011;59888;55.814;37.132;2022-11-21T07:38:24;19.08;;;9.55;;
71395;SDS011;59888;55.814;37.132;2022-11-21T07:40:51;21.77;;;9.60;;
71395;SDS011;59888;55.814;37.132;2022-11-21T07:43:17;21.48;;;9.38;;
71395;SDS011;59888;55.814;37.132;2022-11-21T07:45:43;21.92;;;9.25;;
71395;SDS011;59888;55.814;37.132;2022-11-21T07:48:09;21.00;;;9.40;;
71395;SDS011;59888;55.814;37.132;2022-11-21T07:50:35;21.08;;;10.05;;
71395;SDS011;59888;55.814;37.132;2022-11-21T07:53:02;21.30;;;9.60;;
71395;SDS011;59888;55.814;37.132;2022-11-21T07:55:32;21.23;;;10.18;;
71395;SDS011;59888;55.814;37.132;2022-11-21T07:57:59;19.48;;;9.60;;
71395;SDS011;59888;55.814;37.132;2022-11-21T08:00:36;20.05;;;9.60;;
71395;SDS011;59888;55.814;37.132;2022-11-21T08:03:03;22.67;;;9.02;;
71395;SDS011;59888;55.814;37.132;2022-11-21T08:05:37;22.15;;;10.43;;
71395;SDS011;59888;55.814;37.132;2022-11-21T08:08:06;23.35;;;10.82;;
71395;SDS011;59888;55.814;37.132;2022-11-21T08:10:36;26.95;;;13.38;;
71395;SDS011;59888;55.814;37.132;2022-11-21T08:13:03;20.17;;;9.43;;
71395;SDS011;59888;55.814;37.132;2022-11-21T08:15:29;22.15;;;9.77;;
71395;SDS011;59888;55.814;37.132;2022-11-21T08:17:55;18.65;;;8.98;;
71395;SDS011;59888;55.814;37.132;2022-11-21T08:20:21;20.88;;;9.38;;
71395;SDS011;59888;55.814;37.132;2022-11-21T08:22:47;19.92;;;9.30;;
71395;SDS011;59888;55.814;37.132;2022-11-21T08:25:13;21.70;;;10.25;;
71395;SDS011;59888;55.814;37.132;2022-11-21T08:27:39;19.73;;;8.98;;
71395;SDS011;59888;55.814;37.132;2022-11-21T08:30:07;19.13;;;9.23;;
71395;SDS011;59888;55.814;37.132;2022-11-21T08:32:35;17.90;;;9.07;;
71395;SDS011;59888;55.814;37.132;2022-11-21T08:35:00;16.60;;;8.52;;
71395;SDS011;59888;55.814;37.132;2022-11-21T08:37:27;19.20;;;9.25;;
71395;SDS011;59888;55.814;37.132;2022-11-21T08:39:55;19.38;;;8.60;;
71395;SDS011;59888;55.814;37.132;2022-11-21T08:42:25;17.38;;;8.50;;
71395;SDS011;59888;55.814;37.132;2022-11-21T08:44:50;19.75;;;8.73;;
71395;SDS011;59888;55.814;37.132;2022-11-21T08:47:16;19.75;;;8.85;;
71395;SDS011;59888;55.814;37.132;2022-11-21T08:49:42;17.45;;;8.55;;
71395;SDS011;59888;55.814;37.132;2022-11-21T08:52:08;16.15;;;8.25;;
71395;SDS011;59888;55.814;37.132;2022-11-21T08:54:34;16.08;;;8.25;;
71395;SDS011;59888;55.814;37.132;2022-11-21T08:56:59;18.30;;;8.27;;
71395;SDS011;59888;55.814;37.132;2022-11-21T08:59:25;18.63;;;7.80;;
71395;SDS011;59888;55.814;37.132;2022-11-21T09:01:51;14.27;;;7.78;;
71395;SDS011;59888;55.814;37.132;2022-11-21T09:04:17;14.75;;;7.65;;
71395;SDS011;59888;55.814;37.132;2022-11-21T09:06:43;14.88;;;7.78;;
71395;SDS011;59888;55.814;37.132;2022-11-21T09:09:09;17.10;;;8.52;;
71395;SDS011;59888;55.814;37.132;2022-11-21T09:11:35;15.77;;;7.55;;
71395;SDS011;59888;55.814;37.132;2022-11-21T09:14:11;14.60;;;7.28;;
71395;SDS011;59888;55.814;37.132;2022-11-21T09:16:56;14.45;;;7.20;;
71395;SDS011;59888;55.814;37.132;2022-11-21T09:19:40;15.18;;;7.22;;
71395;SDS011;59888;55.814;37.132;2022-11-21T09:22:06;14.93;;;7.25;;
71395;SDS011;59888;55.814;37.132;2022-11-21T09:24:32;14.68;;;6.95;;
71395;SDS011;59888;55.814;37.132;2022-11-21T09:26:58;15.07;;;7.22;;
71395;SDS011;59888;55.814;37.132;2022-11-21T09:29:23;17.92;;;7.03;;
71395;SDS011;59888;55.814;37.132;2022-11-21T09:31:49;15.32;;;7.15;;
71395;SDS011;59888;55.814;37.132;2022-11-21T09:34:15;13.88;;;6.78;;
71395;SDS011;59888;55.814;37.132;2022-11-21T09:36:41;12.57;;;6.55;;
71395;SDS011;59888;55.814;37.132;2022-11-21T09:39:07;14.38;;;6.78;;
71395;SDS011;59888;55.814;37.132;2022-11-21T09:41:41;13.52;;;7.05;;
71395;SDS011;59888;55.814;37.132;2022-11-21T09:47:23;17.17;;;7.07;;
71395;SDS011;59888;55.814;37.132;2022-11-21T09:49:52;13.07;;;6.90;;
71395;SDS011;59888;55.814;37.132;2022-11-21T09:52:23;16.02;;;7.38;;
71395;SDS011;59888;55.814;37.132;2022-11-21T09:55:04;13.93;;;6.63;;
71395;SDS011;59888;55.814;37.132;2022-11-21T09:57:38;15.20;;;7.55;;
71395;SDS011;59888;55.814;37.132;2022-11-21T10:00:08;12.80;;;6.65;;
71395;SDS011;59888;55.814;37.132;2022-11-21T10:02:46;13.90;;;7.03;;
71395;SDS011;59888;55.814;37.132;2022-11-21T10:05:12;14.75;;;7.15;;
71395;SDS011;59888;55.814;37.132;2022-11-21T10:07:39;15.27;;;7.13;;
71395;SDS011;59888;55.814;37.132;2022-11-21T10:10:11;14.98;;;6.88;;
71395;SDS011;59888;55.814;37.132;2022-11-21T10:27:24;17.40;;;7.15;;
71395;SDS011;59888;55.814;37.132;2022-11-21T10:30:12;15.90;;;7.63;;
71395;SDS011;59888;55.814;37.132;2022-11-21T10:32:41;12.98;;;6.00;;
71395;SDS011;59888;55.814;37.132;2022-11-21T10:35:22;12.55;;;6.57;;
71395;SDS011;59888;55.814;37.132;2022-11-21T10:38:21;13.57;;;7.10;;
71395;SDS011;59888;55.814;37.132;2022-11-21T10:41:01;14.55;;;6.68;;
71395;SDS011;59888;55.814;37.132;2022-11-21T10:43:35;17.55;;;7.03;;
71395;SDS011;59888;55.814;37.132;2022-11-21T10:46:26;12.27;;;6.32;;
71395;SDS011;59888;55.814;37.132;2022-11-21T10:48:56;13.63;;;7.22;;
71395;SDS011;59888;55.814;37.132;2022-11-21T10:51:27;15.40;;;7.72;;
71395;SDS011;59888;55.814;37.132;2022-11-21T10:54:06;16.33;;;7.20;;
71395;SDS011;59888;55.814;37.132;2022-11-21T10:56:52;15.32;;;6.88;;
71395;SDS011;59888;55.814;37.132;2022-11-21T10:59:24;17.70;;;7.70;;
71395;SDS011;59888;55.814;37.132;2022-11-21T11:01:59;12.43;;;7.30;;
71395;SDS011;59888;55.814;37.132;2022-11-21T11:04:27;16.63;;;7.25;;
71395;SDS011;59888;55.814;37.132;2022-11-21T11:06:54;15.18;;;7.00;;
71395;SDS011;59888;55.814;37.132;2022-11-21T11:14:48;14.93;;;7.32;;
71395;SDS011;59888;55.814;37.132;2022-11-21T11:17:28;14.05;;;7.20;;
71395;SDS011;59888;55.814;37.132;2022-11-21T11:20:00;17.30;;;7.43;;
71395;SDS011;59888;55.814;37.132;2022-11-21T11:22:29;15.52;;;7.68;;
71395;SDS011;59888;55.814;37.132;2022-11-21T11:25:01;16.73;;;7.18;;
71395;SDS011;59888;55.814;37.132;2022-11-21T11:27:29;16.65;;;8.10;;
71395;SDS011;59888;55.814;37.132;2022-11-21T11:29:55;15.07;;;7.85;;
71395;SDS011;59888;55.814;37.132;2022-11-21T11:32:21;14.60;;;7.65;;
71395;SDS011;59888;55.814;37.132;2022-11-21T11:34:56;16.75;;;8.05;;
71395;SDS011;59888;55.814;37.132;2022-11-21T11:42:51;18.00;;;7.55;;
71395;SDS011;59888;55.814;37.132;2022-11-21T11:48:54;15.25;;;7.65;;
71395;SDS011;59888;55.814;37.132;2022-11-21T11:51:44;15.57;;;8.25;;
71395;SDS011;59888;55.814;37.132;2022-11-21T11:54:15;15.25;;;7.70;;
71395;SDS011;59888;55.814;37.132;2022-11-21T11:56:44;15.23;;;7.53;;
71395;SDS011;59888;55.814;37.132;2022-11-21T11:59:25;15.82;;;7.82;;
71395;SDS011;59888;55.814;37.132;2022-11-21T12:02:00;15.63;;;7.35;;
71395;SDS011;59888;55.814;37.132;2022-11-21T12:04:33;16.75;;;7.72;;
71395;SDS011;59888;55.814;37.132;2022-11-21T12:07:07;14.05;;;7.18;;
71395;SDS011;59888;55.814;37.132;2022-11-21T12:09:55;19.38;;;8.02;;
71395;SDS011;59888;55.814;37.132;2022-11-21T12:12:31;14.43;;;7.53;;
71395;SDS011;59888;55.814;37.132;2022-11-21T12:15:15;15.30;;;7.57;;
71395;SDS011;59888;55.814;37.132;2022-11-21T12:20:34;18.60;;;8.13;;
71395;SDS011;59888;55.814;37.132;2022-11-21T12:23:08;15.60;;;7.90;;
71395;SDS011;59888;55.814;37.132;2022-11-21T12:25:40;16.63;;;7.35;;
71395;SDS011;59888;55.814;37.132;2022-11-21T12:28:33;17.23;;;8.75;;
71395;SDS011;59888;55.814;37.132;2022-11-21T12:33:51;17.40;;;8.48;;
71395;SDS011;59888;55.814;37.132;2022-11-21T12:45:02;18.85;;;8.18;;
71395;SDS011;59888;55.814;37.132;2022-11-21T13:04:56;15.85;;;7.82;;
71395;SDS011;59888;55.814;37.132;2022-11-21T13:07:24;15.68;;;7.50;;
71395;SDS011;59888;55.814;37.132;2022-11-21T13:09:53;15.00;;;7.70;;
71395;SDS011;59888;55.814;37.132;2022-11-21T13:22:59;16.00;;;8.10;;
71395;SDS011;59888;55.814;37.132;2022-11-21T13:25:36;18.98;;;8.18;;
71395;SDS011;59888;55.814;37.132;2022-11-21T13:30:48;17.13;;;7.75;;
71395;SDS011;59888;55.814;37.132;2022-11-21T13:46:56;18.23;;;8.02;;
71395;SDS011;59888;55.814;37.132;2022-11-21T13:57:41;18.42;;;8.32;;
71395;SDS011;59888;55.814;37.132;2022-11-21T14:08:17;17.83;;;8.43;;
71395;SDS011;59888;55.814;37.132;2022-11-21T14:10:51;17.58;;;8.68;;
71395;SDS011;59888;55.814;37.132;2022-11-21T14:13:39;19.48;;;8.50;;
71395;SDS011;59888;55.814;37.132;2022-11-21T14:19:02;18.10;;;8.75;;
71395;SDS011;59888;55.814;37.132;2022-11-21T14:21:29;16.17;;;7.82;;
71395;SDS011;59888;55.814;37.132;2022-11-21T14:23:59;18.35;;;8.20;;
71395;SDS011;59888;55.814;37.132;2022-11-21T14:26:30;17.55;;;8.60;;
71395;SDS011;59888;55.814;37.132;2022-11-21T14:31:51;15.93;;;8.20;;
71395;SDS011;59888;55.814;37.132;2022-11-21T14:34:26;17.80;;;8.23;;
71395;SDS011;59888;55.814;37.132;2022-11-21T14:36:54;17.52;;;7.88;;
71395;SDS011;59888;55.814;37.132;2022-11-21T14:39:24;17.52;;;8.48;;
71395;SDS011;59888;55.814;37.132;2022-11-21T14:41:53;16.38;;;7.93;;
71395;SDS011;59888;55.814;37.132;2022-11-21T14:44:21;16.83;;;8.05;;
71395;SDS011;59888;55.814;37.132;2022-11-21T14:46:49;17.33;;;8.27;;
71395;SDS011;59888;55.814;37.132;2022-11-21T14:51:52;21.98;;;9.32;;
71395;SDS011;59888;55.814;37.132;2022-11-21T14:54:52;18.00;;;8.90;;
71395;SDS011;59888;55.814;37.132;2022-11-21T14:57:23;17.88;;;8.10;;
71395;SDS011;59888;55.814;37.132;2022-11-21T15:00:04;19.10;;;8.60;;
71395;SDS011;59888;55.814;37.132;2022-11-21T15:02:31;15.27;;;8.18;;
71395;SDS011;59888;55.814;37.132;2022-11-21T15:05:03;16.08;;;8.57;;
71395;SDS011;59888;55.814;37.132;2022-11-21T15:07:37;16.97;;;8.37;;
71395;SDS011;59888;55.814;37.132;2022-11-21T15:10:10;17.90;;;8.70;;
71395;SDS011;59888;55.814;37.132;2022-11-21T15:18:04;19.17;;;9.23;;
71395;SDS011;59888;55.814;37.132;2022-11-21T15:20:32;13.95;;;8.27;;
71395;SDS011;59888;55.814;37.132;2022-11-21T15:22:59;17.80;;;8.98;;
71395;SDS011;59888;55.814;37.132;2022-11-21T15:25:47;18.25;;;8.88;;
71395;SDS011;59888;55.814;37.132;2022-11-21T15:28:14;16.77;;;7.93;;
71395;SDS011;59888;55.814;37.132;2022-11-21T15:30:40;16.58;;;8.50;;
71395;SDS011;59888;55.814;37.132;2022-11-21T15:33:19;18.33;;;8.65;;
71395;SDS011;59888;55.814;37.132;2022-11-21T15:35:51;18.70;;;9.02;;
71395;SDS011;59888;55.814;37.132;2022-11-21T15:38:23;19.27;;;8.55;;
71395;SDS011;59888;55.814;37.132;2022-11-21T15:41:11;16.42;;;8.55;;
71395;SDS011;59888;55.814;37.132;2022-11-21T15:43:50;16.83;;;8.65;;
71395;SDS011;59888;55.814;37.132;2022-11-21T15:46:30;16.95;;;8.30;;
71395;SDS011;59888;55.814;37.132;2022-11-21T15:51:46;16.83;;;8.70;;
71395;SDS011;59888;55.814;37.132;2022-11-21T15:54:13;16.75;;;8.25;;
71395;SDS011;59888;55.814;37.132;2022-11-21T15:56:43;18.83;;;8.55;;
71395;SDS011;59888;55.814;37.132;2022-11-21T15:59:11;19.13;;;8.52;;
71395;SDS011;59888;55.814;37.132;2022-11-21T16:01:37;19.05;;;9.02;;
71395;SDS011;59888;55.814;37.132;2022-11-21T16:04:04;17.65;;;8.30;;
71395;SDS011;59888;55.814;37.132;2022-11-21T16:06:32;18.55;;;8.35;;
71395;SDS011;59888;55.814;37.132;2022-11-21T16:08:59;18.83;;;8.88;;
71395;SDS011;59888;55.814;37.132;2022-11-21T16:11:29;19.17;;;8.88;;
71395;SDS011;59888;55.814;37.132;2022-11-21T16:13:58;18.50;;;8.60;;
71395;SDS011;59888;55.814;37.132;2022-11-21T16:16:26;16.02;;;8.65;;
71395;SDS011;59888;55.814;37.132;2022-11-21T16:18:54;17.38;;;9.60;;
71395;SDS011;59888;55.814;37.132;2022-11-21T16:21:20;19.33;;;9.32;;
71395;SDS011;59888;55.814;37.132;2022-11-21T16:23:46;17.20;;;9.52;;
71395;SDS011;59888;55.814;37.132;2022-11-21T16:26:12;21.80;;;8.70;;
71395;SDS011;59888;55.814;37.132;2022-11-21T16:28:38;19.15;;;8.73;;
71395;SDS011;59888;55.814;37.132;2022-11-21T16:31:05;16.45;;;9.15;;
71395;SDS011;59888;55.814;37.132;2022-11-21T16:33:31;15.63;;;8.35;;
71395;SDS011;59888;55.814;37.132;2022-11-21T16:38:56;17.85;;;8.93;;
71395;SDS011;59888;55.814;37.132;2022-11-21T16:41:22;17.60;;;8.77;;
71395;SDS011;59888;55.814;37.132;2022-11-21T16:43:49;19.30;;;9.68;;
71395;SDS011;59888;55.814;37.132;2022-11-21T16:46:18;17.08;;;9.32;;
71395;SDS011;59888;55.814;37.132;2022-11-21T16:48:46;16.90;;;8.50;;
71395;SDS011;59888;55.814;37.132;2022-11-21T16:51:18;20.40;;;9.75;;